Time;durP1;ratioP1;P1;durP2;ratioP2;P2;SDS_P1;SDS_P2;PMS_P1;PMS_P2;Temp;Humidity;BMP_temperature;BMP_pressure;BME280_temperature;BME280_humidity;BME280_pressure;Samples;Min_cycle;Max_cycle;Signal;HPM_P1;HPM_P2
2021/03/11 00:02:04;;;;;;;17.55;9.00;;;6.00;99.90;;;;;;5092038;28;20060;-62
2021/03/11 00:04:31;;;;;;;21.95;10.32;;;6.00;99.90;;;;;;5095093;28;20050;-62
2021/03/11 00:07:02;;;;;;;24.48;10.95;;;5.90;99.90;;;;;;5076146;28;20048;-62
2021/03/11 00:09:56;;;;;;;22.42;10.80;;;6.00;99.90;;;;;;5094912;28;20050;-62
2021/03/11 00:12:30;;;;;;;20.80;9.63;;;6.00;99.90;;;;;;5090146;28;20074;-62
2021/03/11 00:15:09;;;;;;;17.15;8.98;;;6.00;99.90;;;;;;5069172;28;20077;-62
2021/03/11 00:17:34;;;;;;;19.77;9.85;;;6.00;99.90;;;;;;5095724;28;20388;-61
2021/03/11 00:27:34;;;;;;;16.50;8.77;;;6.10;99.90;;;;;;5079633;28;20040;-62
2021/03/11 00:30:05;;;;;;;21.42;9.43;;;6.10;99.90;;;;;;5076999;28;20072;-62
2021/03/11 00:32:34;;;;;;;22.20;9.88;;;6.10;99.90;;;;;;5094911;28;20062;-61
2021/03/11 00:35:08;;;;;;;19.50;9.02;;;6.10;99.90;;;;;;5094791;28;20060;-62
2021/03/11 00:41:49;;;;;;;19.80;9.27;;;6.10;99.90;;;;;;5093976;28;20089;-62
2021/03/11 00:44:24;;;;;;;16.02;8.23;;;6.10;99.90;;;;;;5094734;28;20476;-62
2021/03/11 00:59:18;;;;;;;13.98;7.18;;;6.20;99.90;;;;;;5073840;28;20518;-62
2021/03/11 01:01:49;;;;;;;15.10;7.32;;;6.20;99.90;;;;;;5094576;28;20048;-62
2021/03/11 01:04:24;;;;;;;14.38;7.20;;;6.20;99.90;;;;;;5076191;28;20071;-63
2021/03/11 01:06:55;;;;;;;15.63;8.23;;;6.20;99.90;;;;;;5089999;28;20036;-62
2021/03/11 01:09:49;;;;;;;15.20;7.53;;;6.20;99.90;;;;;;5093904;28;20048;-63
2021/03/11 01:12:16;;;;;;;14.15;7.03;;;6.20;99.90;;;;;;5077575;28;20043;-62
2021/03/11 01:19:19;;;;;;;13.57;6.57;;;6.30;99.90;;;;;;5093776;28;20135;-63
2021/03/11 01:21:53;;;;;;;14.02;6.85;;;6.30;99.90;;;;;;5089456;28;20040;-63
2021/03/11 01:24:25;;;;;;;13.60;7.40;;;6.30;99.90;;;;;;5072097;28;20487;-62
2021/03/11 01:27:20;;;;;;;16.17;8.18;;;6.30;99.90;;;;;;5085223;28;20043;-62
2021/03/11 01:29:55;;;;;;;12.63;6.03;;;6.30;99.90;;;;;;5073972;28;20094;-62
2021/03/11 01:32:37;;;;;;;11.68;6.18;;;6.30;99.90;;;;;;5058363;28;20067;-62
2021/03/11 01:39:24;;;;;;;15.63;7.70;;;6.40;99.90;;;;;;5073191;28;20130;-63
2021/03/11 01:42:21;;;;;;;12.85;5.75;;;6.40;99.90;;;;;;5067283;28;20048;-62
2021/03/11 01:44:56;;;;;;;14.40;7.40;;;6.40;99.90;;;;;;5073846;28;20122;-63
2021/03/11 01:47:28;;;;;;;14.20;7.20;;;6.40;99.90;;;;;;5058022;28;20183;-63
2021/03/11 01:50:05;;;;;;;15.65;7.53;;;6.40;99.90;;;;;;5071295;28;20070;-62
2021/03/11 01:52:33;;;;;;;14.32;6.85;;;6.40;99.90;;;;;;5059544;28;20048;-63
2021/03/11 01:59:20;;;;;;;11.68;6.72;;;6.50;99.90;;;;;;5073198;28;20079;-63
2021/03/11 02:01:57;;;;;;;14.30;6.15;;;6.50;99.90;;;;;;5073265;28;20473;-63
2021/03/11 02:04:25;;;;;;;13.32;7.03;;;6.50;99.90;;;;;;5068317;28;20040;-63
2021/03/11 02:06:53;;;;;;;13.55;6.60;;;6.50;99.90;;;;;;5079472;28;20072;-63
2021/03/11 02:09:20;;;;;;;12.18;6.03;;;6.40;99.90;;;;;;5073201;28;20049;-63
2021/03/11 02:15:56;;;;;;;11.82;5.70;;;6.50;99.90;;;;;;5067924;28;20036;-63
2021/03/11 02:18:58;;;;;;;12.45;6.20;;;6.50;99.90;;;;;;5065153;28;20496;-63
2021/03/11 02:22:17;;;;;;;12.55;7.10;;;6.50;99.90;;;;;;5069578;28;20040;-63
2021/03/11 02:25:03;;;;;;;12.75;6.45;;;6.50;99.90;;;;;;5028639;28;20048;-63
2021/03/11 02:31:49;;;;;;;9.80;5.32;;;6.60;99.90;;;;;;5072545;28;20039;-63
2021/03/11 02:34:24;;;;;;;10.80;5.65;;;6.60;99.90;;;;;;5053040;28;20053;-64
2021/03/11 02:37:02;;;;;;;12.35;5.97;;;6.60;99.90;;;;;;5069405;28;20067;-63
2021/03/11 02:39:44;;;;;;;11.75;6.57;;;6.60;99.90;;;;;;5072501;28;20079;-64
2021/03/11 02:42:30;;;;;;;11.60;5.60;;;6.60;99.90;;;;;;5072657;28;20048;-63
2021/03/11 02:45:09;;;;;;;12.80;6.50;;;6.70;99.90;;;;;;5057808;28;20048;-63
2021/03/11 02:52:06;;;;;;;14.18;6.45;;;6.70;99.90;;;;;;5072555;28;20120;-63
2021/03/11 02:54:32;;;;;;;13.43;6.72;;;6.70;99.90;;;;;;5072566;28;20055;-63
2021/03/11 02:57:37;;;;;;;11.27;5.95;;;6.70;99.90;;;;;;5072850;28;20055;-63
2021/03/11 03:00:07;;;;;;;12.15;5.90;;;6.70;99.90;;;;;;5058590;28;20052;-63
2021/03/11 03:02:49;;;;;;;12.60;6.95;;;6.70;99.90;;;;;;5072256;28;20040;-63
2021/03/11 03:05:25;;;;;;;11.73;6.57;;;6.70;99.90;;;;;;5073743;28;20447;-63
2021/03/11 03:08:05;;;;;;;12.85;6.22;;;6.70;99.90;;;;;;5076165;28;20059;-63
2021/03/11 03:14:22;;;;;;;13.82;6.47;;;6.80;99.90;;;;;;5075661;28;20063;-64
2021/03/11 03:16:50;;;;;;;12.02;6.82;;;6.70;99.90;;;;;;5056722;28;20041;-64
2021/03/11 03:27:09;;;;;;;10.75;5.30;;;6.80;99.90;;;;;;5077056;28;20047;-64
2021/03/11 03:37:15;;;;;;;12.88;6.60;;;6.80;99.90;;;;;;5091444;28;20395;-65
2021/03/11 03:39:55;;;;;;;13.52;6.65;;;6.80;99.90;;;;;;5095533;28;20435;-65
2021/03/11 03:46:52;;;;;;;10.88;5.65;;;6.90;99.90;;;;;;5095495;28;20031;-64
2021/03/11 03:49:26;;;;;;;13.18;6.30;;;6.90;99.90;;;;;;5095612;28;20471;-65
2021/03/11 03:51:55;;;;;;;9.95;5.45;;;6.90;99.90;;;;;;5095325;28;20068;-65
2021/03/11 03:54:29;;;;;;;12.80;6.57;;;6.90;99.90;;;;;;5089420;28;20062;-65
2021/03/11 03:57:02;;;;;;;10.97;5.73;;;6.90;99.90;;;;;;5091201;28;20480;-65
2021/03/11 04:07:00;;;;;;;11.20;5.93;;;6.90;99.90;;;;;;5091830;28;20525;-65
2021/03/11 04:09:33;;;;;;;10.82;5.65;;;7.00;99.90;;;;;;5075209;28;20045;-65
2021/03/11 04:11:59;;;;;;;11.88;6.20;;;7.00;99.90;;;;;;5078543;28;20071;-66
2021/03/11 04:14:44;;;;;;;11.77;6.07;;;7.00;99.90;;;;;;5095319;28;20055;-66
2021/03/11 04:17:12;;;;;;;9.90;5.97;;;7.10;99.90;;;;;;5076120;28;20097;-65
2021/03/11 04:23:37;;;;;;;9.68;5.75;;;7.10;99.90;;;;;;5094661;28;20035;-65
2021/03/11 04:26:07;;;;;;;13.57;5.57;;;7.10;99.90;;;;;;5087873;28;20506;-65
2021/03/11 04:29:25;;;;;;;9.77;5.78;;;7.10;99.90;;;;;;5094670;28;20043;-66
2021/03/11 04:32:00;;;;;;;11.18;6.05;;;7.20;99.90;;;;;;5094745;28;20078;-66
2021/03/11 04:34:42;;;;;;;11.05;6.55;;;7.20;99.90;;;;;;5074795;28;20044;-65
2021/03/11 04:37:14;;;;;;;13.43;7.13;;;7.20;99.90;;;;;;5076222;28;20498;-66
2021/03/11 04:39:47;;;;;;;10.20;5.40;;;7.30;99.90;;;;;;5094290;28;20044;-66
2021/03/11 04:42:34;;;;;;;12.43;6.72;;;7.30;99.90;;;;;;5087809;28;20044;-66
2021/03/11 04:45:19;;;;;;;16.60;7.35;;;7.30;99.90;;;;;;5078869;28;20479;-66
2021/03/11 04:51:57;;;;;;;10.38;6.07;;;7.40;99.90;;;;;;5094236;28;20093;-65
2021/03/11 04:54:33;;;;;;;13.23;6.97;;;7.40;99.90;;;;;;5089514;28;20398;-66
2021/03/11 04:57:01;;;;;;;14.00;7.32;;;7.50;99.90;;;;;;5093001;28;20052;-65
2021/03/11 04:59:30;;;;;;;9.90;5.80;;;7.50;99.90;;;;;;5094542;28;20071;-66
2021/03/11 05:02:34;;;;;;;12.02;5.93;;;7.50;99.90;;;;;;5072378;28;20115;-66
2021/03/11 05:12:00;;;;;;;9.50;5.50;;;7.60;99.90;;;;;;5092460;28;20077;-66
2021/03/11 05:14:29;;;;;;;8.75;4.80;;;7.70;99.90;;;;;;5092879;28;20059;-65
2021/03/11 05:16:56;;;;;;;10.80;5.93;;;7.70;99.90;;;;;;5093885;28;20133;-67
2021/03/11 05:19:28;;;;;;;10.13;5.65;;;7.80;99.90;;;;;;5094265;28;20051;-66
2021/03/11 05:22:03;;;;;;;9.63;5.80;;;7.70;99.90;;;;;;5073753;28;20049;-66
2021/03/11 05:24:30;;;;;;;15.48;7.28;;;7.80;99.90;;;;;;5068892;28;20105;-66
2021/03/11 05:26:59;;;;;;;10.48;6.22;;;7.80;99.90;;;;;;5093859;28;20544;-66
2021/03/11 05:29:28;;;;;;;13.70;7.05;;;7.80;99.90;;;;;;5085613;28;20085;-66
2021/03/11 05:39:35;;;;;;;13.50;7.03;;;7.90;99.90;;;;;;5093294;28;20047;-66
2021/03/11 05:42:32;;;;;;;12.98;7.15;;;7.90;99.90;;;;;;5093702;28;20530;-66
2021/03/11 05:45:08;;;;;;;15.43;6.28;;;7.90;99.90;;;;;;5093959;28;20040;-65
2021/03/11 05:52:01;;;;;;;15.13;7.20;;;8.00;99.90;;;;;;5093222;28;20399;-66
2021/03/11 05:55:14;;;;;;;17.35;8.18;;;7.90;99.90;;;;;;5089896;28;20040;-66
2021/03/11 05:57:56;;;;;;;10.88;6.50;;;8.00;99.90;;;;;;5093406;28;20079;-67
2021/03/11 06:04:59;;;;;;;16.95;7.60;;;8.00;99.90;;;;;;5085876;28;20035;-66
2021/03/11 06:07:30;;;;;;;13.48;7.03;;;8.10;99.90;;;;;;5069216;28;20051;-66
2021/03/11 06:10:05;;;;;;;13.10;7.30;;;8.10;99.90;;;;;;5055591;28;20068;-66
2021/03/11 06:12:46;;;;;;;18.20;7.68;;;8.10;99.90;;;;;;5090373;28;20044;-67
2021/03/11 06:15:37;;;;;;;13.38;6.32;;;8.20;99.90;;;;;;5074783;28;20040;-66
2021/03/11 06:25:11;;;;;;;14.57;5.80;;;8.30;99.90;;;;;;5090319;28;20075;-66
2021/03/11 06:27:44;;;;;;;13.95;6.80;;;8.30;99.90;;;;;;5092709;28;20093;-66
2021/03/11 06:30:41;;;;;;;9.52;5.50;;;8.30;99.90;;;;;;5093063;28;20093;-66
2021/03/11 06:33:29;;;;;;;9.18;5.60;;;8.30;99.90;;;;;;5092597;28;20044;-66
2021/03/11 06:46:58;;;;;;;6.32;3.92;;;8.30;99.90;;;;;;5096562;28;20104;-67
2021/03/11 06:52:25;;;;;;;8.80;4.53;;;8.40;99.90;;;;;;5076785;28;20279;-67
2021/03/11 06:54:54;;;;;;;9.35;4.65;;;8.50;99.90;;;;;;5096847;28;20048;-67
2021/03/11 06:57:53;;;;;;;10.75;4.30;;;8.50;99.90;;;;;;5096672;28;20059;-67
2021/03/11 07:01:05;;;;;;;9.60;4.22;;;8.50;99.90;;;;;;5058464;28;20048;-67
2021/03/11 07:07:25;;;;;;;8.70;4.93;;;8.60;99.90;;;;;;5096472;28;20039;-66
2021/03/11 07:13:43;;;;;;;7.45;4.63;;;8.70;99.90;;;;;;5086675;28;20043;-67
2021/03/11 07:16:26;;;;;;;8.73;4.35;;;8.80;99.90;;;;;;5087049;28;20040;-68
2021/03/11 07:19:17;;;;;;;8.88;4.80;;;8.80;99.90;;;;;;5095965;28;20135;-67
2021/03/11 07:21:56;;;;;;;10.80;5.25;;;8.80;99.90;;;;;;5095944;28;20541;-68
2021/03/11 07:24:38;;;;;;;11.00;5.40;;;8.90;99.90;;;;;;5096178;28;20047;-70
2021/03/11 07:31:29;;;;;;;10.65;4.82;;;8.90;99.90;;;;;;5095859;28;20082;-68
2021/03/11 07:34:15;;;;;;;11.02;4.65;;;8.90;99.90;;;;;;5081526;28;20407;-68
2021/03/11 07:36:59;;;;;;;12.13;5.25;;;8.90;99.90;;;;;;5095696;28;20566;-69
2021/03/11 07:39:36;;;;;;;12.07;4.47;;;8.90;99.90;;;;;;5079872;28;20040;-69
2021/03/11 07:42:11;;;;;;;13.35;4.95;;;8.90;99.90;;;;;;5091360;28;20559;-72
2021/03/11 07:44:39;;;;;;;13.32;4.65;;;9.00;99.90;;;;;;5095747;28;20044;-75
2021/03/11 07:47:27;;;;;;;8.40;3.85;;;9.00;99.90;;;;;;5095443;28;20040;-72
2021/03/11 07:53:51;;;;;;;8.93;3.80;;;9.00;99.90;;;;;;5095424;28;20094;-70
2021/03/11 07:56:20;;;;;;;9.68;3.83;;;9.10;99.90;;;;;;5090050;28;20055;-72
2021/03/11 07:59:05;;;;;;;13.40;3.72;;;9.00;99.90;;;;;;5094866;28;20545;-76
2021/03/11 08:02:10;;;;;;;9.60;4.10;;;9.10;99.90;;;;;;5095294;28;20131;-70
2021/03/11 08:08:58;;;;;;;8.52;3.83;;;9.20;99.90;;;;;;5095159;28;20035;-69
2021/03/11 08:11:46;;;;;;;11.82;3.97;;;9.30;99.90;;;;;;5057766;28;20480;-71
2021/03/11 08:14:25;;;;;;;10.52;3.70;;;9.30;99.90;;;;;;5077576;28;20044;-69
2021/03/11 08:17:17;;;;;;;12.90;4.18;;;9.30;99.90;;;;;;5077982;28;20078;-68
2021/03/11 08:19:48;;;;;;;11.82;3.70;;;9.30;99.90;;;;;;5094321;28;20176;-74
2021/03/11 08:26:32;;;;;;;17.52;3.55;;;9.40;99.90;;;;;;5083358;28;20095;-72
2021/03/11 08:29:31;;;;;;;12.07;2.60;;;9.50;99.90;;;;;;5054460;28;20056;-73
2021/03/11 08:32:49;;;;;;;14.07;4.28;;;9.50;99.90;;;;;;5054796;28;20074;-74
2021/03/11 08:38:58;;;;;;;10.82;2.08;;;9.70;99.90;;;;;;5049732;28;20048;-69
2021/03/11 08:41:36;;;;;;;20.95;5.10;;;9.70;99.90;;;;;;5054308;28;20389;-73
2021/03/11 08:45:00;;;;;;;13.68;2.63;;;9.70;99.90;;;;;;5054133;28;20048;-71
2021/03/11 08:47:31;;;;;;;16.95;2.67;;;9.70;99.90;;;;;;5043272;28;20396;-69
2021/03/11 08:53:59;;;;;;;21.13;3.45;;;9.80;99.90;;;;;;5053887;28;20087;-72
2021/03/11 08:56:29;;;;;;;24.02;3.72;;;9.80;99.90;;;;;;5048215;28;20037;-70
2021/03/11 08:59:41;;;;;;;32.50;5.15;;;9.80;99.90;;;;;;5053843;28;20480;-71
2021/03/11 09:02:29;;;;;;;28.75;4.45;;;9.80;99.90;;;;;;5053598;28;20083;-72
2021/03/11 09:04:58;;;;;;;23.50;3.33;;;9.90;99.90;;;;;;5054232;28;20119;-72
2021/03/11 09:07:42;;;;;;;17.23;3.78;;;9.90;99.90;;;;;;5053642;28;20116;-71
2021/03/11 09:13:57;;;;;;;22.08;4.30;;;10.00;99.90;;;;;;5048515;28;20063;-72
2021/03/11 09:16:33;;;;;;;26.40;4.40;;;10.00;99.90;;;;;;5053633;28;20040;-69
2021/03/11 09:18:59;;;;;;;17.90;3.60;;;10.00;99.90;;;;;;5054187;28;20033;-68
2021/03/11 09:21:39;;;;;;;22.45;4.65;;;10.00;99.90;;;;;;5052398;28;20079;-73
2021/03/11 09:24:28;;;;;;;29.30;5.53;;;10.00;99.90;;;;;;5053351;28;20053;-71
2021/03/11 09:26:54;;;;;;;30.15;4.05;;;10.10;99.90;;;;;;5051621;28;20060;-71
2021/03/11 09:29:48;;;;;;;22.63;3.50;;;10.20;99.90;;;;;;5075478;28;20135;-71
2021/03/11 09:32:29;;;;;;;32.40;5.05;;;10.20;99.90;;;;;;5080072;28;20546;-70
2021/03/11 09:39:08;;;;;;;25.52;4.72;;;10.30;99.90;;;;;;5093529;28;20506;-67
2021/03/11 09:41:36;;;;;;;25.73;3.88;;;10.30;99.90;;;;;;5093333;28;20038;-68
2021/03/11 09:44:08;;;;;;;34.50;5.53;;;10.30;99.90;;;;;;5094272;28;20071;-67
2021/03/11 09:47:12;;;;;;;25.83;4.35;;;10.30;99.90;;;;;;5091094;28;20051;-72
2021/03/11 09:54:03;;;;;;;31.83;5.03;;;10.40;99.90;;;;;;5093269;28;20399;-72
2021/03/11 09:56:41;;;;;;;19.17;3.78;;;10.40;99.90;;;;;;5081456;28;20115;-72
2021/03/11 10:00:00;;;;;;;31.55;5.95;;;10.30;99.90;;;;;;5091878;28;20115;-73
2021/03/11 10:02:52;;;;;;;26.70;4.07;;;10.30;99.90;;;;;;5080712;28;20059;-72
2021/03/11 10:05:31;;;;;;;25.10;4.72;;;10.30;99.90;;;;;;5085964;28;20147;-74
2021/03/11 10:12:09;;;;;;;25.08;4.43;;;10.30;99.90;;;;;;5093080;28;20074;-64
2021/03/11 10:14:39;;;;;;;25.30;4.53;;;10.30;99.90;;;;;;5079204;28;20043;-72
2021/03/11 10:17:23;;;;;;;21.88;4.72;;;10.20;99.90;;;;;;5077810;28;20622;-75
2021/03/11 10:24:02;;;;;;;27.17;4.22;;;10.10;99.90;;;;;;5096962;28;20034;-73
2021/03/11 10:26:45;;;;;;;22.98;3.83;;;10.00;99.90;;;;;;5097306;28;20036;-73
2021/03/11 10:34:01;;;;;;;29.10;4.68;;;9.90;99.90;;;;;;5056718;28;20071;-75
2021/03/11 10:36:28;;;;;;;23.67;4.13;;;9.80;99.90;;;;;;5056613;28;20119;-73
2021/03/11 10:39:11;;;;;;;25.90;3.80;;;9.70;99.90;;;;;;5055427;28;20404;-76
2021/03/11 10:49:07;;;;;;;19.17;2.92;;;9.60;99.90;;;;;;5036545;28;20052;-72
2021/03/11 10:52:04;;;;;;;18.35;3.25;;;9.50;99.90;;;;;;5056479;28;20049;-73
2021/03/11 10:54:42;;;;;;;26.77;3.55;;;9.50;99.90;;;;;;5056730;28;20056;-72
2021/03/11 10:57:21;;;;;;;21.25;3.47;;;9.40;99.90;;;;;;5038634;28;20053;-69
2021/03/11 10:59:58;;;;;;;25.33;3.65;;;9.40;99.90;;;;;;5054964;28;20098;-69
2021/03/11 11:06:31;;;;;;;18.45;2.95;;;9.20;99.90;;;;;;5056059;28;20102;-71
2021/03/11 11:09:05;;;;;;;22.88;3.95;;;9.20;99.90;;;;;;5056461;28;20170;-72
2021/03/11 11:11:31;;;;;;;23.83;3.80;;;9.20;99.90;;;;;;5055992;28;20098;-73
2021/03/11 11:14:22;;;;;;;17.88;3.85;;;9.20;99.90;;;;;;5056420;28;20403;-75
2021/03/11 11:16:57;;;;;;;20.60;4.00;;;9.10;99.90;;;;;;5051777;28;20475;-75
2021/03/11 11:19:26;;;;;;;20.75;3.47;;;9.10;99.90;;;;;;5039948;28;20045;-71
2021/03/11 11:22:12;;;;;;;21.50;4.30;;;9.10;99.90;;;;;;5051388;28;20044;-71
2021/03/11 11:39:37;;;;;;;23.25;3.78;;;9.00;99.90;;;;;;5055912;28;20037;-72
2021/03/11 11:42:26;;;;;;;21.58;4.03;;;9.00;99.90;;;;;;5039371;28;20048;-69
2021/03/11 11:44:53;;;;;;;29.63;3.83;;;9.00;99.90;;;;;;5041473;28;20120;-73
2021/03/11 11:54:47;;;;;;;22.70;4.45;;;9.00;99.90;;;;;;5055110;28;20040;-71
2021/03/11 12:01:38;;;;;;;22.85;3.60;;;9.00;99.90;;;;;;5054925;28;20067;-68
2021/03/11 12:04:13;;;;;;;33.03;4.40;;;8.90;99.90;;;;;;5044235;28;20128;-68
2021/03/11 12:06:42;;;;;;;20.67;3.72;;;8.90;99.90;;;;;;5051698;28;20040;-70
2021/03/11 12:09:13;;;;;;;27.92;5.15;;;9.00;99.90;;;;;;5054830;28;20046;-71
2021/03/11 12:11:41;;;;;;;26.40;4.10;;;9.00;99.90;;;;;;5055138;28;20082;-69
2021/03/11 12:14:07;;;;;;;26.50;3.72;;;9.00;99.90;;;;;;5054945;28;20048;-69
2021/03/11 12:16:36;;;;;;;23.67;4.35;;;9.00;99.90;;;;;;5054956;28;20044;-72
2021/03/11 12:19:05;;;;;;;29.38;5.75;;;9.00;99.90;;;;;;5049709;28;20093;-71
2021/03/11 12:21:39;;;;;;;30.67;4.20;;;9.10;99.90;;;;;;5035072;28;20049;-73
2021/03/11 12:24:12;;;;;;;22.40;3.90;;;9.10;99.90;;;;;;5054236;28;20458;-71
2021/03/11 12:26:50;;;;;;;24.77;3.70;;;9.20;99.90;;;;;;5052743;28;20041;-72
2021/03/11 12:29:17;;;;;;;26.67;5.53;;;9.20;99.90;;;;;;5055611;28;20546;-71
2021/03/11 12:32:08;;;;;;;13.50;2.70;;;9.30;99.90;;;;;;5093876;28;20480;-70
2021/03/11 12:41:48;;;;;;;26.58;5.15;;;9.30;99.90;;;;;;5094841;28;20047;-69
2021/03/11 12:44:46;;;;;;;11.93;2.92;;;9.30;99.90;;;;;;5074590;28;20044;-70
2021/03/11 12:47:20;;;;;;;13.05;2.45;;;9.40;99.90;;;;;;5078261;28;20422;-69
2021/03/11 12:49:47;;;;;;;19.27;3.45;;;9.40;99.90;;;;;;5095126;28;20052;-70
2021/03/11 12:56:12;;;;;;;27.30;3.20;;;9.40;99.90;;;;;;5093920;28;20077;-70
2021/03/11 12:58:46;;;;;;;19.45;2.58;;;9.40;99.90;;;;;;5093783;28;20046;-70
2021/03/11 13:01:12;;;;;;;;;;;9.40;99.90;;;;;;5077317;28;20048;-70
2021/03/11 13:04:05;;;;;;;15.88;1.98;;;9.50;99.90;;;;;;5094850;28;19927;-71
2021/03/11 13:06:49;;;;;;;8.55;2.17;;;9.50;99.90;;;;;;5056532;28;20055;-72
2021/03/11 13:09:33;;;;;;;14.88;2.67;;;9.50;99.90;;;;;;5078446;28;20036;-70
2021/03/11 13:12:00;;;;;;;14.02;2.50;;;9.70;99.90;;;;;;5080131;28;20097;-73
2021/03/11 13:18:46;;;;;;;11.93;2.55;;;9.70;99.90;;;;;;5093634;28;20392;-70
2021/03/11 13:21:12;;;;;;;10.52;2.13;;;9.70;99.90;;;;;;5073693;28;20048;-70
2021/03/11 13:23:44;;;;;;;12.00;2.03;;;9.70;99.90;;;;;;5093780;28;20054;-72
2021/03/11 13:26:19;;;;;;;11.32;2.03;;;9.60;99.90;;;;;;5070173;28;20071;-71
2021/03/11 13:29:20;;;;;;;16.42;2.63;;;9.70;99.90;;;;;;5075267;28;20488;-71
2021/03/11 13:39:21;;;;;;;10.55;1.83;;;9.80;99.90;;;;;;5037790;28;20056;-68
2021/03/11 13:41:56;;;;;;;7.00;1.38;;;9.70;99.90;;;;;;5053389;28;20048;-69
2021/03/11 13:44:24;;;;;;;11.00;1.70;;;9.70;99.90;;;;;;5053226;28;20053;-69
2021/03/11 13:51:16;;;;;;;12.80;2.22;;;9.60;99.90;;;;;;5052824;28;20090;-68
2021/03/11 13:54:18;;;;;;;9.48;2.22;;;9.60;99.90;;;;;;5053291;28;20045;-67
2021/03/11 14:01:20;;;;;;;11.27;1.77;;;9.50;99.90;;;;;;5053278;28;20128;-68
2021/03/11 14:03:52;;;;;;;14.48;1.85;;;9.50;99.90;;;;;;5048917;28;20076;-67
2021/03/11 14:06:19;;;;;;;12.93;1.83;;;9.50;99.90;;;;;;5053166;28;20123;-66
2021/03/11 14:08:49;;;;;;;13.30;1.83;;;9.50;99.90;;;;;;5052165;28;20052;-68
2021/03/11 14:11:16;;;;;;;14.70;2.03;;;9.50;99.90;;;;;;5053319;28;20045;-68
2021/03/11 14:13:54;;;;;;;8.88;2.05;;;9.40;99.90;;;;;;5048253;28;20048;-67
2021/03/11 14:16:22;;;;;;;8.43;1.55;;;9.40;99.90;;;;;;5053028;28;20041;-67
2021/03/11 14:18:51;;;;;;;8.93;1.88;;;9.50;99.90;;;;;;5052813;28;20484;-68
2021/03/11 14:36:38;;;;;;;11.90;1.98;;;9.60;99.90;;;;;;5085203;28;20048;-67
2021/03/11 14:39:27;;;;;;;5.78;1.10;;;9.60;99.90;;;;;;5092849;28;20066;-66
2021/03/11 14:42:05;;;;;;;8.98;1.42;;;9.70;99.90;;;;;;5077633;28;20480;-67
2021/03/11 14:44:36;;;;;;;9.20;1.77;;;9.70;99.90;;;;;;5078835;28;20105;-66
2021/03/11 14:51:20;;;;;;;7.85;1.70;;;9.60;99.90;;;;;;5092789;28;20069;-67
2021/03/11 14:53:54;;;;;;;10.27;1.85;;;9.50;99.90;;;;;;5093837;28;20040;-67
2021/03/11 14:56:22;;;;;;;12.68;2.00;;;9.50;99.90;;;;;;5092634;28;20090;-68
2021/03/11 14:58:49;;;;;;;12.35;2.05;;;9.40;99.90;;;;;;5093651;28;20075;-66
2021/03/11 15:01:18;;;;;;;10.05;1.98;;;9.40;99.90;;;;;;5075631;28;20060;-66
2021/03/11 15:04:04;;;;;;;11.38;1.83;;;9.50;99.90;;;;;;5076306;28;20454;-69
2021/03/11 15:06:47;;;;;;;6.40;1.50;;;9.40;99.90;;;;;;5093137;28;20043;-70
2021/03/11 15:09:34;;;;;;;7.30;1.73;;;9.50;99.90;;;;;;5072926;28;20044;-68
2021/03/11 15:12:12;;;;;;;7.15;1.77;;;9.50;99.90;;;;;;5096150;28;20032;-68
2021/03/11 15:18:47;;;;;;;11.30;1.67;;;9.70;99.90;;;;;;5095910;28;20039;-69
2021/03/11 15:21:23;;;;;;;5.97;1.73;;;9.70;99.90;;;;;;5090538;28;20064;-70
2021/03/11 15:23:52;;;;;;;9.43;1.50;;;9.80;99.90;;;;;;5077844;28;20036;-73
2021/03/11 15:26:35;;;;;;;16.10;1.58;;;9.80;99.90;;;;;;5078144;28;20062;-69
2021/03/11 15:29:19;;;;;;;9.10;1.58;;;9.80;99.90;;;;;;5091715;28;20071;-70
2021/03/11 15:31:48;;;;;;;6.13;1.80;;;9.80;99.90;;;;;;5077120;28;20059;-67
2021/03/11 15:34:31;;;;;;;8.88;1.80;;;9.80;99.90;;;;;;5095755;28;20040;-67
2021/03/11 15:41:24;;;;;;;9.05;1.60;;;9.80;99.90;;;;;;5095709;28;20051;-68
2021/03/11 15:43:58;;;;;;;7.70;1.90;;;9.80;99.90;;;;;;5095976;28;20048;-69
2021/03/11 15:46:36;;;;;;;5.53;1.15;;;9.70;99.90;;;;;;5078083;28;20047;-67
2021/03/11 15:49:35;;;;;;;3.85;1.02;;;9.80;99.90;;;;;;5095599;28;20051;-68
2021/03/11 15:52:01;;;;;;;5.55;1.30;;;9.60;99.90;;;;;;5095262;28;20537;-68
2021/03/11 15:54:40;;;;;;;6.72;1.10;;;9.60;99.90;;;;;;5079444;28;20471;-69
2021/03/11 15:57:18;;;;;;;12.80;1.88;;;9.50;99.90;;;;;;5094902;28;20040;-68
2021/03/11 16:03:34;;;;;;;11.23;1.42;;;9.40;99.90;;;;;;5095112;28;20078;-68
2021/03/11 16:06:27;;;;;;;7.10;1.55;;;9.50;99.90;;;;;;5087803;28;20047;-68
2021/03/11 16:09:32;;;;;;;9.70;1.35;;;9.40;99.90;;;;;;5076052;28;20067;-69
2021/03/11 16:19:00;;;;;;;9.07;1.58;;;9.30;99.90;;;;;;5074708;28;20544;-69
2021/03/11 16:21:34;;;;;;;10.25;1.50;;;9.30;99.90;;;;;;5094995;28;20063;-73
2021/03/11 16:24:11;;;;;;;;;;;9.20;99.90;;;;;;5095638;28;20064;-71
2021/03/11 16:26:40;;;;;;;9.43;1.52;;;9.20;99.90;;;;;;5074977;28;20011;-71
2021/03/11 16:29:08;;;;;;;7.28;1.10;;;9.20;99.90;;;;;;5094903;28;20081;-72
2021/03/11 16:31:37;;;;;;;7.15;1.05;;;9.10;99.90;;;;;;5094807;28;20044;-69
2021/03/11 16:34:28;;;;;;;7.15;1.30;;;9.10;99.90;;;;;;5073292;28;20083;-72
2021/03/11 16:37:05;;;;;;;9.45;1.65;;;9.10;99.90;;;;;;5068732;28;20087;-73
2021/03/11 16:39:50;;;;;;;8.07;1.10;;;9.00;99.90;;;;;;5074832;28;20060;-71
2021/03/11 16:42:21;;;;;;;7.80;1.40;;;9.00;99.90;;;;;;5058796;28;20056;-69
2021/03/11 16:44:50;;;;;;;10.70;1.30;;;9.00;99.90;;;;;;5074108;28;20044;-75
2021/03/11 16:51:40;;;;;;;9.55;1.48;;;9.00;99.90;;;;;;5074236;28;20047;-71
2021/03/11 16:54:35;;;;;;;9.10;1.52;;;8.90;99.90;;;;;;5073951;28;20142;-71
2021/03/11 16:57:25;;;;;;;5.30;1.00;;;8.90;99.90;;;;;;5056702;28;20037;-70
2021/03/11 16:59:53;;;;;;;5.65;1.35;;;8.90;99.90;;;;;;5073860;28;20048;-69
2021/03/11 17:02:28;;;;;;;4.85;1.30;;;8.90;99.90;;;;;;5072529;28;20055;-68
2021/03/11 17:09:14;;;;;;;4.80;1.00;;;8.70;99.90;;;;;;5073959;28;20030;-70
2021/03/11 17:11:56;;;;;;;4.70;1.05;;;8.70;99.90;;;;;;5073949;28;20041;-74
2021/03/11 17:14:34;;;;;;;6.25;1.00;;;8.70;99.90;;;;;;5069770;28;20048;-72
2021/03/11 17:17:22;;;;;;;5.40;0.95;;;8.60;99.90;;;;;;5072191;28;20484;-74
2021/03/11 17:20:14;;;;;;;6.70;1.20;;;8.70;99.90;;;;;;5073554;28;20051;-70
2021/03/11 17:23:02;;;;;;;5.10;1.20;;;8.60;99.90;;;;;;5067682;28;20044;-72
2021/03/11 17:25:40;;;;;;;4.25;1.33;;;8.60;99.90;;;;;;5061439;28;20041;-71
2021/03/11 17:32:28;;;;;;;9.48;2.10;;;8.60;99.90;;;;;;5073059;28;20043;-73
2021/03/11 17:34:57;;;;;;;7.93;1.27;;;8.60;99.90;;;;;;5093459;28;20056;-74
2021/03/11 17:37:39;;;;;;;5.60;1.02;;;8.60;99.90;;;;;;5075618;28;20472;-66
2021/03/11 17:40:13;;;;;;;4.07;0.77;;;8.60;99.90;;;;;;5093424;28;20073;-71
2021/03/11 17:42:44;;;;;;;9.98;0.80;;;8.60;99.90;;;;;;5075107;28;20070;-70
2021/03/11 17:45:12;;;;;;;11.10;1.60;;;8.60;99.90;;;;;;5093279;28;20052;-73
2021/03/11 17:47:51;;;;;;;9.63;1.10;;;8.40;99.90;;;;;;5093456;28;20044;-75
2021/03/11 17:50:31;;;;;;;6.53;1.17;;;8.20;99.90;;;;;;5082463;28;20483;-75
2021/03/11 17:53:25;;;;;;;6.43;1.02;;;7.90;99.90;;;;;;5077682;28;20151;-74
2021/03/11 18:00:12;;;;;;;4.60;1.08;;;7.50;99.90;;;;;;5093443;28;20047;-69
2021/03/11 18:02:47;;;;;;;3.78;1.10;;;7.40;99.90;;;;;;5088098;28;20037;-68
2021/03/11 18:05:25;;;;;;;3.35;0.77;;;7.40;99.90;;;;;;5057014;28;20047;-68
2021/03/11 18:07:52;;;;;;;8.75;1.02;;;7.40;99.90;;;;;;5093541;28;20444;-70
2021/03/11 18:10:43;;;;;;;6.60;0.95;;;7.40;99.90;;;;;;5075247;28;20400;-71
2021/03/11 18:13:31;;;;;;;5.60;1.25;;;7.40;99.90;;;;;;5093649;28;20043;-71
2021/03/11 18:19:57;;;;;;;5.78;0.90;;;7.40;99.90;;;;;;5092897;28;20541;-71
2021/03/11 18:22:55;;;;;;;3.35;0.90;;;7.40;99.90;;;;;;5086305;28;20047;-71
2021/03/11 18:25:31;;;;;;;4.68;1.20;;;7.40;99.90;;;;;;5086869;28;20048;-69
2021/03/11 18:28:11;;;;;;;7.25;1.45;;;7.40;99.90;;;;;;5093273;28;20047;-68
2021/03/11 18:35:24;;;;;;;3.72;1.15;;;7.40;99.90;;;;;;5091802;28;20070;-68
2021/03/11 18:37:54;;;;;;;15.23;2.15;;;7.50;99.90;;;;;;5094357;28;20032;-69
2021/03/11 18:40:42;;;;;;;12.13;1.85;;;7.50;99.90;;;;;;5061288;28;20484;-69
2021/03/11 18:47:35;;;;;;;8.15;1.35;;;7.60;99.90;;;;;;5096931;28;20034;-69
2021/03/11 18:50:30;;;;;;;7.88;1.23;;;7.60;99.90;;;;;;5088803;28;20480;-68
2021/03/11 18:53:16;;;;;;;7.28;1.42;;;7.50;99.90;;;;;;5096910;28;20437;-69
2021/03/11 18:55:56;;;;;;;4.43;1.20;;;7.50;99.90;;;;;;5076495;28;20076;-68
2021/03/11 19:02:35;;;;;;;4.95;0.90;;;7.40;99.90;;;;;;5096338;28;20407;-68
2021/03/11 19:05:09;;;;;;;8.63;1.35;;;7.40;99.90;;;;;;5096567;28;20048;-69
2021/03/11 19:07:37;;;;;;;7.28;1.27;;;7.30;99.90;;;;;;5096481;28;20040;-69
2021/03/11 19:10:09;;;;;;;9.48;1.25;;;7.30;99.90;;;;;;5076429;28;20139;-69
2021/03/11 19:12:36;;;;;;;4.25;0.88;;;7.30;99.90;;;;;;5094046;28;20040;-68
2021/03/11 19:15:11;;;;;;;7.53;1.45;;;7.40;99.90;;;;;;5073471;28;20510;-68
2021/03/11 19:18:14;;;;;;;4.03;0.75;;;7.30;99.90;;;;;;5091818;28;20044;-69